Time;durP1;ratioP1;P1;durP2;ratioP2;P2;SDS_P1;SDS_P2;PMS_P1;PMS_P2;Temp;Humidity;BMP_temperature;BMP_pressure;BME280_temperature;BME280_humidity;BME280_pressure;Samples;Min_cycle;Max_cycle;Signal;HPM_P1;HPM_P2
2022/08/10 00:00:19;;;;;;;3.22;2.50;;;17.80;92.00;;;;;;5090488;28;20534;-43
2022/08/10 00:02:15;;;;;;;3.03;2.30;;;17.80;92.20;;;;;;5090602;28;20032;-44
2022/08/10 00:04:41;;;;;;;4.22;2.60;;;17.70;92.70;;;;;;5091425;28;20038;-44
2022/08/10 00:07:06;;;;;;;6.60;2.75;;;17.70;93.20;;;;;;5091586;28;20103;-44
2022/08/10 00:09:32;;;;;;;3.47;2.70;;;17.60;93.70;;;;;;5091148;28;20059;-44
2022/08/10 00:11:57;;;;;;;6.38;2.90;;;17.50;94.20;;;;;;5090335;28;20668;-45
2022/08/10 00:14:23;;;;;;;4.47;3.17;;;17.50;94.90;;;;;;5091007;28;20038;-45
2022/08/10 00:16:48;;;;;;;4.22;2.55;;;17.40;95.70;;;;;;5091073;28;20059;-43
2022/08/10 00:19:14;;;;;;;2.70;2.40;;;17.30;96.40;;;;;;5091070;28;20539;-44
2022/08/10 00:21:39;;;;;;;3.78;2.53;;;17.30;96.80;;;;;;5090325;28;20030;-45
2022/08/10 00:24:05;;;;;;;5.57;3.20;;;17.20;97.20;;;;;;5090934;28;20107;-44
2022/08/10 00:26:31;;;;;;;3.13;2.83;;;17.30;97.50;;;;;;5072550;28;20056;-44
2022/08/10 00:28:56;;;;;;;4.50;2.70;;;17.20;97.80;;;;;;5085310;28;20535;-46
2022/08/10 00:31:22;;;;;;;3.40;2.70;;;17.20;98.50;;;;;;5090589;28;20326;-43
2022/08/10 00:33:47;;;;;;;6.03;3.00;;;17.10;98.80;;;;;;5091114;28;20025;-41
2022/08/10 00:36:13;;;;;;;5.82;3.10;;;17.10;99.40;;;;;;5091189;28;20024;-42
2022/08/10 00:38:38;;;;;;;4.25;2.63;;;17.10;99.40;;;;;;5091101;28;20503;-43
2022/08/10 00:41:04;;;;;;;5.60;2.70;;;17.10;99.70;;;;;;5089972;28;20016;-43
2022/08/10 00:43:30;;;;;;;4.13;2.72;;;17.10;99.90;;;;;;5090506;28;20017;-43
2022/08/10 00:45:55;;;;;;;6.45;2.85;;;17.10;99.90;;;;;;5090870;28;20035;-43
2022/08/10 00:48:21;;;;;;;3.95;2.40;;;17.10;99.90;;;;;;5090738;28;20112;-43
2022/08/10 00:50:48;;;;;;;5.43;2.90;;;17.10;99.90;;;;;;5089157;28;20099;-43
2022/08/10 00:53:13;;;;;;;3.50;2.63;;;17.00;99.90;;;;;;5090347;28;20111;-43
2022/08/10 00:55:39;;;;;;;6.88;3.10;;;17.00;99.90;;;;;;5083831;28;20103;-43
2022/08/10 00:58:06;;;;;;;5.38;2.95;;;16.90;99.90;;;;;;5081610;28;20062;-43
2022/08/10 01:00:32;;;;;;;7.15;2.80;;;16.90;99.90;;;;;;5089927;28;20048;-43
2022/08/10 01:02:58;;;;;;;4.43;2.90;;;16.80;99.90;;;;;;5090095;28;20491;-46
2022/08/10 01:05:24;;;;;;;6.30;2.80;;;16.80;99.90;;;;;;5090146;28;20081;-43
2022/08/10 01:08:35;;;;;;;6.43;3.20;;;16.80;99.90;;;;;;5090082;28;20108;-43
2022/08/10 01:11:08;;;;;;;;;;;16.80;99.90;;;;;;5029832;28;20040;-45
2022/08/10 01:13:43;;;;;;;4.40;3.13;;;16.70;99.90;;;;;;5083302;28;19946;-43
2022/08/10 01:16:30;;;;;;;3.90;2.70;;;16.70;99.90;;;;;;5090140;28;20043;-43
2022/08/10 01:19:00;;;;;;;6.22;2.90;;;16.60;99.90;;;;;;5088625;28;20266;-42
2022/08/10 01:21:45;;;;;;;6.20;2.92;;;16.50;99.90;;;;;;5089498;28;20023;-45
2022/08/10 01:24:50;;;;;;;4.10;2.90;;;16.40;99.90;;;;;;5090115;28;20039;-43
2022/08/10 01:30:19;;;;;;;10.68;3.38;;;16.30;99.90;;;;;;5089548;28;20081;-45
2022/08/10 01:33:05;;;;;;;5.20;3.20;;;16.20;99.90;;;;;;5089064;28;20020;-42
2022/08/10 01:36:03;;;;;;;4.20;2.67;;;16.20;99.90;;;;;;5089636;28;20100;-45
2022/08/10 01:38:33;;;;;;;5.32;3.15;;;16.10;99.90;;;;;;5088294;28;20170;-43
2022/08/10 01:41:08;;;;;;;4.82;3.00;;;16.00;99.90;;;;;;5088741;28;20032;-43
2022/08/10 01:43:41;;;;;;;4.35;3.05;;;16.00;99.90;;;;;;5089559;28;20081;-42
2022/08/10 01:46:08;;;;;;;4.18;3.10;;;15.90;99.90;;;;;;5089269;28;20063;-43
2022/08/10 01:48:38;;;;;;;2.97;2.67;;;15.90;99.90;;;;;;5088021;28;20039;-42
2022/08/10 01:51:13;;;;;;;4.47;3.15;;;15.90;99.90;;;;;;5088760;28;20111;-43
2022/08/10 01:53:52;;;;;;;3.58;2.88;;;15.80;99.90;;;;;;5089137;28;20031;-45
2022/08/10 01:56:20;;;;;;;6.57;3.63;;;15.80;99.90;;;;;;5082730;28;20072;-46
2022/08/10 01:58:49;;;;;;;3.42;2.97;;;15.70;99.90;;;;;;5081922;28;20128;-45
2022/08/10 02:01:18;;;;;;;6.22;3.50;;;15.70;99.90;;;;;;5088272;28;20024;-45
2022/08/10 02:03:48;;;;;;;5.80;3.10;;;15.70;99.90;;;;;;5088218;28;20028;-44
2022/08/10 02:06:14;;;;;;;5.35;3.30;;;15.70;99.90;;;;;;5088848;28;20091;-45
2022/08/10 02:08:42;;;;;;;5.07;3.42;;;15.70;99.90;;;;;;5088817;28;20024;-45
2022/08/10 02:11:10;;;;;;;4.60;3.17;;;15.70;99.90;;;;;;5088101;28;20383;-44
2022/08/10 02:13:37;;;;;;;5.93;3.25;;;15.70;99.90;;;;;;5089107;28;20050;-44
2022/08/10 02:16:05;;;;;;;4.72;3.20;;;15.70;99.90;;;;;;5089113;28;20024;-43
2022/08/10 02:18:32;;;;;;;7.43;3.63;;;15.60;99.90;;;;;;5088894;28;20357;-44
2022/08/10 02:21:01;;;;;;;3.97;3.00;;;15.60;99.90;;;;;;5086680;28;20425;-43
2022/08/10 02:23:30;;;;;;;7.05;3.92;;;15.70;99.90;;;;;;5088496;28;20031;-45
2022/08/10 02:25:59;;;;;;;6.50;3.45;;;15.70;99.90;;;;;;5079193;28;20035;-45
2022/08/10 02:28:28;;;;;;;5.75;3.28;;;15.60;99.90;;;;;;5080356;28;20265;-43
2022/08/10 02:30:55;;;;;;;5.22;3.35;;;15.60;99.90;;;;;;5088179;28;20458;-43
2022/08/10 02:33:24;;;;;;;5.22;3.30;;;15.60;99.90;;;;;;5088523;28;20201;-43
2022/08/10 02:35:50;;;;;;;5.82;3.67;;;15.60;99.90;;;;;;5088676;28;20024;-42
2022/08/10 02:38:22;;;;;;;4.97;3.75;;;15.60;99.90;;;;;;5088606;28;20534;-44
2022/08/10 02:40:55;;;;;;;9.05;3.28;;;15.60;99.90;;;;;;5088175;28;20660;-43
2022/08/10 02:43:25;;;;;;;6.05;3.53;;;15.50;99.90;;;;;;5089338;28;20437;-43
2022/08/10 02:46:05;;;;;;;5.15;2.95;;;15.50;99.90;;;;;;5088863;28;20020;-43
2022/08/10 02:48:51;;;;;;;;;;;15.50;99.90;;;;;;5088888;28;20032;-44
2022/08/10 02:51:23;;;;;;;5.90;3.45;;;15.50;99.90;;;;;;5087493;28;19915;-43
2022/08/10 02:53:53;;;;;;;5.47;3.53;;;15.40;99.90;;;;;;5088505;28;20035;-46
2022/08/10 02:56:24;;;;;;;4.95;3.08;;;15.40;99.90;;;;;;5083851;28;20115;-44
2022/08/10 02:58:57;;;;;;;;;;;15.40;99.90;;;;;;5070903;28;20027;-44
2022/08/10 03:01:28;;;;;;;4.75;3.45;;;15.30;99.90;;;;;;5067159;28;19987;-44
2022/08/10 03:04:00;;;;;;;3.78;3.30;;;15.30;99.90;;;;;;5065546;28;20064;-43
2022/08/10 03:06:35;;;;;;;5.68;3.28;;;15.30;99.90;;;;;;5066888;28;20047;-43
2022/08/10 03:09:05;;;;;;;6.13;2.83;;;15.30;99.90;;;;;;5068221;28;20025;-43
2022/08/10 03:11:31;;;;;;;4.45;3.63;;;15.20;99.90;;;;;;5065999;28;20107;-44
2022/08/10 03:13:59;;;;;;;5.38;3.55;;;15.20;99.90;;;;;;5069381;28;20035;-43
2022/08/10 03:16:26;;;;;;;5.15;3.72;;;15.20;99.90;;;;;;5072011;28;20028;-44
2022/08/10 03:18:54;;;;;;;3.70;3.20;;;15.10;99.90;;;;;;5072192;28;20723;-43
2022/08/10 03:21:22;;;;;;;8.18;3.97;;;15.10;99.90;;;;;;5071188;28;20044;-43
2022/08/10 03:23:50;;;;;;;4.50;3.20;;;15.10;99.90;;;;;;5072339;28;20176;-42
2022/08/10 03:26:16;;;;;;;8.60;4.22;;;15.10;99.90;;;;;;5075690;28;20032;-44
2022/08/10 03:28:43;;;;;;;5.72;3.83;;;15.00;99.90;;;;;;5084428;28;20047;-44
2022/08/10 03:31:09;;;;;;;7.82;4.32;;;15.00;99.90;;;;;;5091570;28;20023;-43
2022/08/10 03:33:38;;;;;;;7.65;4.32;;;15.00;99.90;;;;;;5091990;28;20062;-43
2022/08/10 03:36:05;;;;;;;6.47;3.78;;;14.90;99.90;;;;;;5091900;28;20071;-43
2022/08/10 03:38:31;;;;;;;9.00;3.88;;;15.00;99.90;;;;;;5091784;28;20262;-44
2022/08/10 03:41:00;;;;;;;6.50;3.65;;;14.90;99.90;;;;;;5090875;28;20296;-43
2022/08/10 03:43:26;;;;;;;8.30;4.35;;;14.90;99.90;;;;;;5091827;28;20360;-42
2022/08/10 03:45:55;;;;;;;4.60;3.85;;;15.00;99.90;;;;;;5091971;28;20024;-43
2022/08/10 03:48:22;;;;;;;8.18;4.63;;;15.00;99.90;;;;;;5091946;28;20047;-44
2022/08/10 03:50:50;;;;;;;5.38;3.70;;;15.00;99.90;;;;;;5090889;28;20032;-43
2022/08/10 03:53:16;;;;;;;7.07;4.47;;;15.00;99.90;;;;;;5091417;28;20046;-43
2022/08/10 03:55:43;;;;;;;10.35;4.22;;;15.00;99.90;;;;;;5088029;28;20104;-43
2022/08/10 03:58:09;;;;;;;5.70;3.72;;;15.00;99.90;;;;;;5081491;28;20020;-42
2022/08/10 04:00:35;;;;;;;5.50;4.10;;;15.00;99.90;;;;;;5089524;28;20035;-43
2022/08/10 04:03:03;;;;;;;9.73;3.60;;;15.00;99.90;;;;;;5091253;28;20254;-43
2022/08/10 04:05:30;;;;;;;5.90;4.00;;;15.00;99.90;;;;;;5091444;28;20073;-44
2022/08/10 04:07:56;;;;;;;4.63;3.60;;;15.00;99.90;;;;;;5091586;28;20498;-43
2022/08/10 04:10:22;;;;;;;13.27;4.32;;;14.90;99.90;;;;;;5090833;28;20043;-43
2022/08/10 04:12:47;;;;;;;7.75;3.90;;;15.00;99.90;;;;;;5090363;28;20105;-43
2022/08/10 04:15:13;;;;;;;5.72;4.38;;;14.90;99.90;;;;;;5091017;28;20028;-43
2022/08/10 04:17:38;;;;;;;7.80;4.15;;;15.00;99.90;;;;;;5089357;28;20236;-43
2022/08/10 04:20:06;;;;;;;6.78;4.13;;;14.90;99.90;;;;;;5090920;28;20418;-43
2022/08/10 04:22:34;;;;;;;4.53;4.10;;;14.90;99.90;;;;;;5090113;28;20542;-43
2022/08/10 04:25:03;;;;;;;6.57;4.45;;;14.90;99.90;;;;;;5087705;28;20398;-44
2022/08/10 04:27:29;;;;;;;8.05;4.70;;;15.00;99.90;;;;;;5079792;28;20542;-44
2022/08/10 04:29:56;;;;;;;7.45;4.60;;;15.00;99.90;;;;;;5090636;28;20020;-43
2022/08/10 04:32:23;;;;;;;4.95;3.72;;;15.00;99.90;;;;;;5090391;28;20111;-43
2022/08/10 04:34:51;;;;;;;5.07;4.22;;;15.00;99.90;;;;;;5090730;28;20020;-43
2022/08/10 04:37:19;;;;;;;8.48;4.80;;;15.10;99.90;;;;;;5090803;28;20027;-43
2022/08/10 04:39:45;;;;;;;7.70;4.00;;;15.10;99.90;;;;;;5083558;28;20437;-43
2022/08/10 04:42:10;;;;;;;10.10;3.97;;;15.10;99.90;;;;;;5069502;28;20039;-43
2022/08/10 04:44:36;;;;;;;4.13;3.70;;;15.00;99.90;;;;;;5070289;28;20032;-43
2022/08/10 04:47:02;;;;;;;10.13;3.90;;;15.00;99.90;;;;;;5070495;28;20040;-43
2022/08/10 04:49:28;;;;;;;4.72;4.25;;;15.10;99.90;;;;;;5070254;28;20095;-42
2022/08/10 04:51:53;;;;;;;7.18;4.25;;;15.10;99.90;;;;;;5069670;28;20028;-43
2022/08/10 04:54:19;;;;;;;6.13;4.10;;;15.10;99.90;;;;;;5070064;28;20028;-43
2022/08/10 04:56:44;;;;;;;8.38;4.50;;;15.10;99.90;;;;;;5078285;28;20035;-43
2022/08/10 04:59:10;;;;;;;5.15;4.00;;;15.10;99.90;;;;;;5085588;28;20081;-43
2022/08/10 05:01:37;;;;;;;7.18;4.50;;;15.10;99.90;;;;;;5069495;28;20040;-43
2022/08/10 05:04:03;;;;;;;4.45;4.05;;;15.20;99.90;;;;;;5069771;28;20025;-43
2022/08/10 05:06:29;;;;;;;8.43;4.63;;;15.20;99.90;;;;;;5069656;28;20384;-44
2022/08/10 05:08:54;;;;;;;6.15;4.68;;;15.20;99.90;;;;;;5069748;28;20095;-43
2022/08/10 05:11:19;;;;;;;10.60;4.55;;;15.30;99.90;;;;;;5067275;28;20024;-43
2022/08/10 05:13:45;;;;;;;7.88;4.10;;;15.30;99.90;;;;;;5069021;28;20028;-44
2022/08/10 05:16:11;;;;;;;6.43;4.30;;;15.30;99.90;;;;;;5069212;28;20438;-42
2022/08/10 05:18:36;;;;;;;7.45;4.10;;;15.40;99.90;;;;;;5068979;28;20013;-43
2022/08/10 05:21:02;;;;;;;4.82;4.30;;;15.40;99.90;;;;;;5068386;28;20027;-43
2022/08/10 05:23:27;;;;;;;7.88;4.75;;;15.40;99.90;;;;;;5069079;28;20052;-44
2022/08/10 05:25:53;;;;;;;5.78;4.22;;;15.50;99.90;;;;;;5069259;28;20281;-44
2022/08/10 05:28:18;;;;;;;5.97;4.43;;;15.50;99.90;;;;;;5070977;28;20032;-43
2022/08/10 05:30:44;;;;;;;11.95;4.78;;;15.50;99.90;;;;;;5068072;28;20107;-43
2022/08/10 05:33:09;;;;;;;8.52;5.03;;;15.60;99.90;;;;;;5067490;28;20017;-43
2022/08/10 05:35:37;;;;;;;9.27;4.30;;;15.60;99.90;;;;;;5068747;28;20380;-42
2022/08/10 05:38:03;;;;;;;6.97;4.68;;;15.70;99.90;;;;;;5068871;28;20025;-44
2022/08/10 05:40:29;;;;;;;7.28;4.80;;;15.70;99.90;;;;;;5068608;28;20129;-44
2022/08/10 05:42:54;;;;;;;12.18;5.53;;;15.80;99.90;;;;;;5068699;28;20100;-43
2022/08/10 05:45:24;;;;;;;7.53;4.53;;;15.80;99.90;;;;;;5069006;28;20033;-44
2022/08/10 05:47:50;;;;;;;7.65;4.28;;;15.80;99.90;;;;;;5068743;28;20547;-44
2022/08/10 05:50:18;;;;;;;8.80;4.72;;;15.90;99.90;;;;;;5068883;28;20024;-44
2022/08/10 05:52:44;;;;;;;9.23;4.65;;;15.90;99.90;;;;;;5067232;28;20093;-44
2022/08/10 05:55:10;;;;;;;6.70;4.15;;;16.00;99.90;;;;;;5069312;28;20029;-43
2022/08/10 05:57:35;;;;;;;8.77;5.20;;;16.10;99.90;;;;;;5077304;28;20025;-44
2022/08/10 06:00:09;;;;;;;8.27;5.00;;;16.10;99.90;;;;;;5068941;28;20514;-44
2022/08/10 06:02:42;;;;;;;7.43;4.68;;;16.20;99.90;;;;;;5068119;28;20036;-44
2022/08/10 06:05:09;;;;;;;13.20;4.70;;;16.30;99.90;;;;;;5068502;28;20052;-43
2022/08/10 06:07:39;;;;;;;5.53;4.55;;;16.30;99.90;;;;;;5068408;28;20025;-43
2022/08/10 06:10:08;;;;;;;8.82;4.45;;;16.30;99.90;;;;;;5068266;28;20024;-44
2022/08/10 06:12:34;;;;;;;8.02;4.80;;;16.40;99.90;;;;;;5066253;28;20115;-43
2022/08/10 06:15:02;;;;;;;8.15;5.00;;;16.40;99.90;;;;;;5068241;28;20568;-43
2022/08/10 06:17:29;;;;;;;8.82;4.55;;;16.50;99.90;;;;;;5068143;28;20090;-44
2022/08/10 06:19:57;;;;;;;9.32;4.55;;;16.50;99.90;;;;;;5068803;28;20392;-44
2022/08/10 06:22:27;;;;;;;5.80;4.40;;;16.70;99.90;;;;;;5068261;28;20089;-44
2022/08/10 06:24:55;;;;;;;9.30;4.30;;;16.80;99.90;;;;;;5068754;28;20536;-43
2022/08/10 06:27:21;;;;;;;5.55;4.25;;;16.80;99.90;;;;;;5075064;28;20032;-44
2022/08/10 06:29:48;;;;;;;9.00;4.53;;;16.80;99.90;;;;;;5089050;28;20620;-44
2022/08/10 06:32:16;;;;;;;7.03;4.10;;;16.90;99.90;;;;;;5088298;28;20027;-46
2022/08/10 06:34:47;;;;;;;8.40;4.38;;;17.00;99.90;;;;;;5088895;28;20052;-44
2022/08/10 06:37:16;;;;;;;5.82;3.85;;;17.10;99.90;;;;;;5088749;28;20024;-46
2022/08/10 06:39:43;;;;;;;6.70;4.20;;;17.10;99.90;;;;;;5087213;28;20580;-46
2022/08/10 06:42:32;;;;;;;5.60;3.58;;;17.20;99.90;;;;;;5083717;28;20097;-44
2022/08/10 06:45:14;;;;;;;8.35;4.30;;;17.30;99.90;;;;;;5045894;28;20087;-46
2022/08/10 06:47:52;;;;;;;7.18;4.30;;;17.40;99.90;;;;;;5063059;28;20027;-44
2022/08/10 06:50:43;;;;;;;5.90;4.15;;;17.50;99.90;;;;;;5070498;28;20025;-45
2022/08/10 06:53:20;;;;;;;6.50;4.03;;;17.60;99.90;;;;;;5071904;28;20025;-46
2022/08/10 06:55:56;;;;;;;6.82;4.22;;;17.70;99.90;;;;;;5076057;28;20032;-44
2022/08/10 06:58:25;;;;;;;5.35;3.97;;;17.80;99.90;;;;;;5083203;28;20024;-47
2022/08/10 07:00:52;;;;;;;9.52;4.55;;;17.90;99.90;;;;;;5049447;28;20100;-44
2022/08/10 07:03:19;;;;;;;10.07;4.60;;;18.00;99.90;;;;;;5051968;28;20055;-46
2022/08/10 07:05:48;;;;;;;4.50;4.03;;;18.10;99.90;;;;;;5051456;28;20123;-45
2022/08/10 07:08:20;;;;;;;7.70;4.22;;;18.20;99.90;;;;;;5051697;28;20104;-45
2022/08/10 07:10:47;;;;;;;7.63;3.90;;;18.20;99.90;;;;;;5047842;28;20033;-48
2022/08/10 07:13:18;;;;;;;8.38;4.28;;;18.30;99.90;;;;;;5051217;28;20259;-48
2022/08/10 07:15:47;;;;;;;6.13;4.28;;;18.40;99.90;;;;;;5028430;28;20068;-46
2022/08/10 07:18:14;;;;;;;6.43;4.05;;;18.50;99.90;;;;;;5028880;28;20041;-44
2022/08/10 07:20:41;;;;;;;7.28;4.00;;;18.50;99.90;;;;;;5027824;28;20172;-45
2022/08/10 07:23:10;;;;;;;7.35;3.92;;;18.60;99.90;;;;;;5012287;28;20346;-46
2022/08/10 07:25:38;;;;;;;6.07;4.03;;;18.70;99.90;;;;;;5049575;28;20039;-45
2022/08/10 07:28:04;;;;;;;5.70;4.30;;;18.80;99.90;;;;;;5081784;28;20056;-45
2022/08/10 07:30:34;;;;;;;6.22;3.70;;;18.90;99.90;;;;;;5091403;28;20028;-45
2022/08/10 07:33:01;;;;;;;;;;;19.00;99.90;;;;;;5091080;28;20024;-45
2022/08/10 07:35:30;;;;;;;8.63;3.50;;;19.10;99.90;;;;;;5092093;28;20386;-45
2022/08/10 07:37:57;;;;;;;6.00;3.95;;;19.30;99.90;;;;;;5091861;28;20028;-46
2022/08/10 07:40:23;;;;;;;5.00;3.78;;;19.40;99.90;;;;;;5091619;28;20032;-45
2022/08/10 07:42:52;;;;;;;7.45;3.95;;;19.50;99.90;;;;;;5090768;28;20118;-45
2022/08/10 07:45:18;;;;;;;9.30;3.97;;;19.70;99.90;;;;;;5090208;28;20126;-44
2022/08/10 07:47:57;;;;;;;8.15;3.72;;;19.80;99.90;;;;;;5092215;28;20114;-46
2022/08/10 07:50:26;;;;;;;3.70;3.20;;;20.00;99.90;;;;;;5091529;28;20114;-48
2022/08/10 07:52:56;;;;;;;10.80;4.45;;;20.20;99.90;;;;;;5090975;28;20016;-48
2022/08/10 07:55:22;;;;;;;;;;;20.40;99.90;;;;;;5091093;28;20115;-45
2022/08/10 07:57:50;;;;;;;6.03;3.67;;;20.60;99.90;;;;;;5082592;28;20345;-45
2022/08/10 08:00:17;;;;;;;6.47;3.63;;;21.00;99.90;;;;;;5091311;28;20035;-48
2022/08/10 08:02:52;;;;;;;8.23;3.95;;;21.10;99.60;;;;;;5091314;28;20028;-49
2022/08/10 08:05:21;;;;;;;6.10;3.13;;;21.40;99.10;;;;;;5091492;28;20024;-46
2022/08/10 08:07:48;;;;;;;7.20;4.05;;;21.60;98.40;;;;;;5091361;28;20107;-45
2022/08/10 08:10:16;;;;;;;5.15;3.58;;;21.80;97.80;;;;;;5089919;28;20028;-45
2022/08/10 08:12:42;;;;;;;8.45;3.33;;;22.10;97.50;;;;;;5090353;28;20027;-45
2022/08/10 08:15:11;;;;;;;6.28;3.15;;;22.40;96.60;;;;;;5091235;28;20383;-47
2022/08/10 08:17:38;;;;;;;10.82;3.33;;;22.70;95.70;;;;;;5091552;28;20036;-46
2022/08/10 08:20:06;;;;;;;4.95;3.00;;;23.00;94.70;;;;;;5091034;28;20108;-46
2022/08/10 08:22:32;;;;;;;6.63;3.00;;;23.40;94.30;;;;;;5089032;28;20435;-47
2022/08/10 08:24:59;;;;;;;9.93;3.30;;;23.80;93.40;;;;;;5090927;28;20072;-45
2022/08/10 08:27:27;;;;;;;5.13;3.05;;;24.10;92.30;;;;;;5080197;28;20035;-44
2022/08/10 08:29:53;;;;;;;6.55;3.08;;;24.90;91.30;;;;;;5085239;28;20029;-44
2022/08/10 08:32:21;;;;;;;3.55;2.35;;;26.00;88.90;;;;;;5090386;28;20455;-45
2022/08/10 08:34:51;;;;;;;7.03;2.97;;;27.40;83.50;;;;;;5089741;28;20056;-45
2022/08/10 08:37:19;;;;;;;4.32;2.08;;;28.90;78.60;;;;;;5090946;28;20121;-45
2022/08/10 08:39:45;;;;;;;6.15;1.90;;;30.80;67.30;;;;;;5090606;28;20093;-44
2022/08/10 08:42:36;;;;;;;4.70;2.45;;;31.80;61.80;;;;;;5088493;28;20036;-47
2022/08/10 08:45:21;;;;;;;3.67;1.90;;;32.60;58.00;;;;;;5090644;28;20063;-45
2022/08/10 08:48:18;;;;;;;6.63;2.30;;;33.10;57.30;;;;;;5090612;28;20150;-44
2022/08/10 08:51:16;;;;;;;5.45;1.88;;;33.70;55.30;;;;;;5089571;28;20088;-46
2022/08/10 08:54:11;;;;;;;7.30;2.05;;;34.40;52.70;;;;;;5090424;28;20028;-45
2022/08/10 08:57:11;;;;;;;6.95;2.65;;;35.20;50.60;;;;;;5083476;28;20016;-46
2022/08/10 08:59:52;;;;;;;4.72;1.83;;;36.10;49.60;;;;;;5073999;28;20038;-46
2022/08/10 09:02:35;;;;;;;5.68;2.05;;;36.70;48.60;;;;;;5089829;28;20046;-48
2022/08/10 09:05:21;;;;;;;5.28;1.60;;;36.80;47.10;;;;;;5090425;28;20034;-47
2022/08/10 09:08:21;;;;;;;2.80;1.58;;;37.30;45.90;;;;;;5090206;28;20031;-46
2022/08/10 09:10:58;;;;;;;2.78;1.70;;;37.20;45.40;;;;;;5089882;28;20044;-46
2022/08/10 09:13:30;;;;;;;4.93;2.05;;;37.80;45.00;;;;;;5091018;28;20095;-45
2022/08/10 09:16:15;;;;;;;2.47;1.73;;;37.80;45.10;;;;;;5091143;28;20099;-48
2022/08/10 09:18:53;;;;;;;3.67;1.80;;;38.60;43.60;;;;;;5091467;28;20024;-48
2022/08/10 09:21:41;;;;;;;2.37;1.60;;;38.80;43.60;;;;;;5082595;28;20078;-45
2022/08/10 09:24:37;;;;;;;2.60;1.80;;;39.20;42.90;;;;;;5069760;28;20270;-46
2022/08/10 09:27:21;;;;;;;3.55;1.25;;;38.90;42.20;;;;;;5068465;28;20017;-46
2022/08/10 09:29:56;;;;;;;4.03;1.73;;;38.70;42.10;;;;;;5068713;28;20028;-45
2022/08/10 09:32:41;;;;;;;1.90;1.30;;;39.00;41.80;;;;;;5068894;28;20027;-45
2022/08/10 09:35:48;;;;;;;3.30;1.55;;;40.50;40.90;;;;;;5066359;28;20024;-45
2022/08/10 09:38:27;;;;;;;2.75;1.55;;;40.10;40.10;;;;;;5068927;28;20041;-47
2022/08/10 09:41:00;;;;;;;3.38;1.50;;;39.80;40.10;;;;;;5067572;28;20048;-47
2022/08/10 09:43:44;;;;;;;4.05;1.92;;;39.70;40.90;;;;;;5067055;28;20092;-45
2022/08/10 09:46:29;;;;;;;3.35;1.23;;;40.40;40.50;;;;;;5070077;28;20059;-46
2022/08/10 09:49:19;;;;;;;6.25;1.73;;;40.80;39.90;;;;;;5068946;28;20520;-49
2022/08/10 09:52:05;;;;;;;3.17;1.50;;;40.50;40.30;;;;;;5069195;28;20024;-47
2022/08/10 09:55:02;;;;;;;6.10;1.67;;;40.90;39.90;;;;;;5069991;28;20107;-47
2022/08/10 09:57:40;;;;;;;3.05;1.52;;;40.70;39.70;;;;;;5078202;28;20031;-45
2022/08/10 10:00:11;;;;;;;7.00;2.10;;;39.90;39.70;;;;;;5086166;28;20028;-48
2022/08/10 10:03:00;;;;;;;2.40;1.80;;;40.60;39.20;;;;;;5089138;28;20028;-45
2022/08/10 10:05:51;;;;;;;2.33;1.30;;;40.90;38.80;;;;;;5089221;28;20078;-45
2022/08/10 10:08:41;;;;;;;6.10;1.65;;;41.60;38.20;;;;;;5089196;28;20031;-47
2022/08/10 10:11:20;;;;;;;3.83;1.52;;;41.10;38.00;;;;;;5087982;28;20093;-45
2022/08/10 10:13:53;;;;;;;3.78;1.45;;;40.50;38.10;;;;;;5089019;28;20050;-48
2022/08/10 10:16:24;;;;;;;2.25;1.67;;;39.90;38.60;;;;;;5088754;28;20028;-45
2022/08/10 10:19:09;;;;;;;3.83;1.77;;;39.50;39.20;;;;;;5088757;28;20028;-46
2022/08/10 10:21:54;;;;;;;4.05;1.80;;;39.70;39.30;;;;;;5088425;28;20035;-45
2022/08/10 10:24:38;;;;;;;3.10;1.63;;;41.20;38.40;;;;;;5088537;28;20524;-48
2022/08/10 10:27:19;;;;;;;2.72;1.25;;;41.50;38.10;;;;;;5077145;28;20087;-45
2022/08/10 10:30:10;;;;;;;3.13;1.55;;;40.70;37.90;;;;;;5075500;28;20032;-47
2022/08/10 10:33:11;;;;;;;1.42;1.10;;;38.90;38.60;;;;;;5088902;28;20028;-44
2022/08/10 10:35:55;;;;;;;1.48;1.33;;;39.30;39.80;;;;;;5090056;28;20063;-47
2022/08/10 10:38:27;;;;;;;3.70;1.50;;;38.90;39.80;;;;;;5089935;28;20024;-45
2022/08/10 10:41:28;;;;;;;4.47;2.10;;;37.50;40.10;;;;;;5088860;28;20030;-45
2022/08/10 10:44:11;;;;;;;4.88;2.13;;;36.70;42.30;;;;;;5089859;28;20016;-45
2022/08/10 10:46:46;;;;;;;6.05;1.88;;;36.40;42.20;;;;;;5088623;28;20517;-44
2022/08/10 10:49:48;;;;;;;3.88;1.80;;;36.00;42.40;;;;;;5069844;28;20033;-45
2022/08/10 10:52:28;;;;;;;2.90;1.50;;;36.00;41.00;;;;;;5057070;28;20021;-45
2022/08/10 10:55:14;;;;;;;3.65;1.40;;;36.40;40.10;;;;;;5049103;28;20032;-46
2022/08/10 10:57:54;;;;;;;3.17;1.85;;;37.30;39.90;;;;;;5074080;28;20363;-45
2022/08/10 11:00:24;;;;;;;4.75;1.60;;;38.40;39.80;;;;;;5085303;28;20024;-46
2022/08/10 11:03:14;;;;;;;1.92;1.52;;;39.30;39.20;;;;;;5088841;28;20051;-45
2022/08/10 11:05:39;;;;;;;2.45;1.40;;;40.20;38.00;;;;;;5089481;28;20099;-47
2022/08/10 11:08:18;;;;;;;4.95;1.67;;;40.10;37.90;;;;;;5089328;28;20098;-46
2022/08/10 11:11:17;;;;;;;3.65;1.40;;;41.00;37.60;;;;;;5088739;28;20038;-46
2022/08/10 11:14:07;;;;;;;2.67;1.40;;;42.30;35.90;;;;;;5081481;28;20380;-49
2022/08/10 11:16:52;;;;;;;6.35;1.80;;;41.80;36.60;;;;;;5067628;28;20402;-44
2022/08/10 11:19:32;;;;;;;4.18;1.70;;;41.80;36.10;;;;;;5068979;28;20029;-48
2022/08/10 11:22:38;;;;;;;9.43;7.53;;;41.60;35.70;;;;;;5068321;28;20398;-48
2022/08/10 11:25:27;;;;;;;29.10;26.15;;;41.00;36.50;;;;;;5068845;28;20115;-47
2022/08/10 11:28:20;;;;;;;3.30;1.50;;;41.40;35.90;;;;;;5071988;28;20024;-48
2022/08/10 11:31:00;;;;;;;3.45;1.33;;;41.30;35.50;;;;;;5048455;28;20125;-46
2022/08/10 11:33:41;;;;;;;4.50;1.77;;;41.00;36.50;;;;;;5049467;28;20099;-47
2022/08/10 11:36:26;;;;;;;2.60;1.10;;;40.80;36.10;;;;;;5052057;28;20326;-47
2022/08/10 11:39:09;;;;;;;2.25;1.13;;;41.30;35.70;;;;;;5052646;28;20029;-46
2022/08/10 11:41:44;;;;;;;2.53;1.23;;;40.90;35.60;;;;;;5052056;28;20048;-47
2022/08/10 11:44:25;;;;;;;1.30;0.98;;;41.40;35.60;;;;;;5065698;28;20035;-45
2022/08/10 11:47:00;;;;;;;2.63;1.10;;;41.80;34.90;;;;;;5066543;28;20026;-47
2022/08/10 11:49:38;;;;;;;4.40;1.45;;;41.80;34.90;;;;;;5076852;28;20034;-46
2022/08/10 11:52:13;;;;;;;7.15;1.30;;;40.70;35.00;;;;;;5076355;28;20021;-45
2022/08/10 11:54:42;;;;;;;2.92;1.05;;;40.80;36.10;;;;;;5061522;28;20016;-48
2022/08/10 11:57:10;;;;;;;4.75;1.52;;;40.30;36.30;;;;;;5074788;28;20021;-46
2022/08/10 12:02:24;;;;;;;4.40;1.15;;;39.30;36.30;;;;;;5071692;28;20099;-44
2022/08/10 12:04:51;;;;;;;;;;;39.40;36.70;;;;;;5071465;28;20106;-45
2022/08/10 12:07:20;;;;;;;1.40;1.30;;;39.30;36.30;;;;;;5068975;28;19966;-48
2022/08/10 12:09:47;;;;;;;2.30;1.38;;;38.90;36.90;;;;;;5083815;28;20023;-43
2022/08/10 12:12:14;;;;;;;5.85;1.15;;;39.00;37.00;;;;;;5089797;28;20502;-47
2022/08/10 12:14:47;;;;;;;1.48;1.10;;;38.50;37.00;;;;;;5092144;28;20024;-45
2022/08/10 12:17:27;;;;;;;3.03;1.33;;;37.90;37.20;;;;;;5090563;28;20398;-44
2022/08/10 12:20:01;;;;;;;3.90;1.50;;;37.00;38.20;;;;;;5092352;28;20439;-45
2022/08/10 12:22:41;;;;;;;2.40;1.45;;;36.60;38.40;;;;;;5091982;28;20017;-44
2022/08/10 12:25:13;;;;;;;2.42;1.20;;;36.20;39.40;;;;;;5092514;28;20024;-44
2022/08/10 12:27:49;;;;;;;3.00;1.30;;;36.00;39.30;;;;;;5084444;28;20095;-44
2022/08/10 12:30:16;;;;;;;3.58;1.30;;;35.90;39.80;;;;;;5089733;28;20034;-46
2022/08/10 12:33:00;;;;;;;2.80;1.27;;;35.60;40.60;;;;;;5086409;28;20032;-44
2022/08/10 12:35:35;;;;;;;3.13;1.30;;;35.20;40.40;;;;;;5084072;28;20024;-45
2022/08/10 12:38:26;;;;;;;3.25;1.70;;;35.10;40.00;;;;;;5087733;28;20422;-44
2022/08/10 12:40:59;;;;;;;5.25;1.80;;;35.00;39.50;;;;;;5077903;28;20892;-43
2022/08/10 12:43:34;;;;;;;2.65;1.20;;;34.20;40.70;;;;;;5087805;28;20116;-44
2022/08/10 12:46:36;;;;;;;2.13;1.48;;;34.40;41.00;;;;;;5082829;28;20020;-47
2022/08/10 12:49:12;;;;;;;6.10;1.77;;;34.50;40.70;;;;;;5092122;28;20479;-45
2022/08/10 12:51:46;;;;;;;3.58;1.38;;;34.50;40.20;;;;;;5091460;28;20036;-46
2022/08/10 12:54:18;;;;;;;2.17;1.10;;;34.20;40.80;;;;;;5075059;28;20028;-44
2022/08/10 12:56:57;;;;;;;7.85;1.30;;;34.10;42.10;;;;;;5091443;28;20020;-47
2022/08/10 12:59:26;;;;;;;1.67;1.35;;;34.00;40.90;;;;;;5078378;28;20031;-43
2022/08/10 13:01:53;;;;;;;1.58;1.20;;;33.90;41.80;;;;;;5089534;28;20020;-43
2022/08/10 13:04:30;;;;;;;5.95;2.00;;;33.60;41.50;;;;;;5090483;28;20032;-46
2022/08/10 13:06:59;;;;;;;2.42;1.40;;;33.80;41.50;;;;;;5090037;28;20051;-46
2022/08/10 13:09:25;;;;;;;2.73;1.77;;;33.80;41.60;;;;;;5089883;28;20475;-44
2022/08/10 13:12:07;;;;;;;3.75;1.98;;;33.60;40.90;;;;;;5089290;28;20024;-46
2022/08/10 13:14:50;;;;;;;2.47;1.70;;;33.50;41.90;;;;;;5088855;28;20023;-43
2022/08/10 13:17:28;;;;;;;2.63;1.70;;;33.60;42.10;;;;;;5090049;28;20035;-43
2022/08/10 13:19:56;;;;;;;7.57;1.50;;;33.60;41.50;;;;;;5072099;28;20039;-43
2022/08/10 13:22:27;;;;;;;4.57;1.95;;;33.40;41.70;;;;;;5087083;28;20111;-43